Time;durP1;ratioP1;P1;durP2;ratioP2;P2;SDS_P1;SDS_P2;PMS_P1;PMS_P2;Temp;Humidity;BMP_temperature;BMP_pressure;BME280_temperature;BME280_humidity;BME280_pressure;Samples;Min_cycle;Max_cycle;Signal;HPM_P1;HPM_P2
2022/09/09 00:01:13;;;;;;;24.52;15.80;;;13.40;99.90;;;;;;5098482;28;20132;-45
2022/09/09 00:03:56;;;;;;;19.85;15.45;;;13.40;99.90;;;;;;5078903;28;20052;-44
2022/09/09 00:06:36;;;;;;;16.77;14.95;;;13.40;99.90;;;;;;5078780;28;20091;-52
2022/09/09 00:09:18;;;;;;;20.75;15.30;;;13.40;99.90;;;;;;5097034;28;20032;-51
2022/09/09 00:12:03;;;;;;;22.92;14.85;;;13.40;99.90;;;;;;5092878;27;20059;-43
2022/09/09 00:15:19;;;;;;;17.75;14.68;;;13.40;99.90;;;;;;5093959;27;20047;-43
2022/09/09 00:17:56;;;;;;;21.88;15.25;;;13.40;99.90;;;;;;5093629;28;20050;-43
2022/09/09 00:20:25;;;;;;;23.85;15.40;;;13.30;99.90;;;;;;5095516;28;20047;-42
2022/09/09 00:23:09;;;;;;;19.65;15.15;;;13.30;99.90;;;;;;5095981;28;20054;-43
2022/09/09 00:26:03;;;;;;;22.00;15.38;;;13.30;99.90;;;;;;5080627;28;20058;-45
2022/09/09 00:28:34;;;;;;;21.02;13.45;;;13.30;99.90;;;;;;5095579;28;20048;-49
2022/09/09 00:31:11;;;;;;;20.98;14.23;;;13.30;99.90;;;;;;5095596;28;20050;-45
2022/09/09 00:33:38;;;;;;;20.42;13.60;;;13.30;99.90;;;;;;5094840;28;20439;-44
2022/09/09 00:36:13;;;;;;;19.15;13.60;;;13.30;99.90;;;;;;5063705;28;20555;-43
2022/09/09 00:38:47;;;;;;;21.92;14.52;;;13.30;99.90;;;;;;5091533;27;20044;-42
2022/09/09 00:41:40;;;;;;;17.83;14.23;;;13.30;99.90;;;;;;5059338;28;20119;-43
2022/09/09 00:44:15;;;;;;;;;;;13.20;99.90;;;;;;5091399;28;20047;-44
2022/09/09 00:47:19;;;;;;;20.60;13.65;;;13.20;99.90;;;;;;5092901;27;19935;-44
2022/09/09 00:50:29;;;;;;;21.17;14.10;;;13.20;99.90;;;;;;5066419;28;20532;-45
2022/09/09 00:53:14;;;;;;;17.02;13.45;;;13.20;99.90;;;;;;5071023;28;20460;-44
2022/09/09 00:56:13;;;;;;;23.40;15.18;;;13.20;99.90;;;;;;5096045;28;20048;-46
2022/09/09 00:58:40;;;;;;;24.65;14.93;;;13.20;99.90;;;;;;5094149;28;20396;-43
2022/09/09 01:01:12;;;;;;;24.02;14.63;;;13.30;99.90;;;;;;5095108;28;20507;-46
2022/09/09 01:03:59;;;;;;;27.83;14.68;;;13.30;99.90;;;;;;5095424;28;20050;-45
2022/09/09 01:06:31;;;;;;;25.67;15.88;;;13.30;99.90;;;;;;5086057;28;20590;-52
2022/09/09 01:09:17;;;;;;;23.30;15.65;;;13.30;99.90;;;;;;5091637;27;20040;-47
2022/09/09 01:11:43;;;;;;;18.27;15.40;;;13.40;99.90;;;;;;5091896;28;20056;-46
2022/09/09 01:14:30;;;;;;;21.10;15.43;;;13.40;99.90;;;;;;5100679;27;20177;-43
2022/09/09 01:17:05;;;;;;;22.13;15.18;;;13.40;99.90;;;;;;5058832;28;20054;-42
2022/09/09 01:19:44;;;;;;;19.98;15.70;;;13.50;99.90;;;;;;5100237;28;20054;-44
2022/09/09 01:22:13;;;;;;;18.95;14.75;;;13.50;99.90;;;;;;5094943;28;20044;-46
2022/09/09 01:24:55;;;;;;;17.92;14.60;;;13.60;99.90;;;;;;5080964;28;20047;-49
2022/09/09 01:27:51;;;;;;;17.70;14.05;;;13.60;99.90;;;;;;5088231;28;20506;-43
2022/09/09 01:30:18;;;;;;;20.08;13.85;;;13.70;99.90;;;;;;5110530;27;20136;-44
2022/09/09 01:32:51;;;;;;;18.23;14.20;;;13.80;99.90;;;;;;5058825;28;20521;-44
2022/09/09 01:35:30;;;;;;;19.70;14.77;;;13.90;99.90;;;;;;5089901;28;20590;-46
2022/09/09 01:37:56;;;;;;;23.27;15.43;;;13.90;99.90;;;;;;5093029;27;20043;-43
2022/09/09 01:40:24;;;;;;;19.58;13.68;;;14.00;99.90;;;;;;5097394;28;20432;-43
2022/09/09 01:42:52;;;;;;;18.90;15.13;;;14.10;99.90;;;;;;5111602;27;20478;-43
2022/09/09 01:45:19;;;;;;;22.55;15.75;;;14.10;99.90;;;;;;5092431;28;20056;-41
2022/09/09 01:47:45;;;;;;;19.75;15.48;;;14.10;99.90;;;;;;5078783;28;20043;-40
2022/09/09 01:50:25;;;;;;;26.05;16.10;;;14.10;99.90;;;;;;5110828;27;20131;-39
2022/09/09 01:52:56;;;;;;;33.28;16.20;;;14.10;99.90;;;;;;5091697;28;20436;-39
2022/09/09 01:55:32;;;;;;;22.67;15.80;;;14.20;99.90;;;;;;5078519;28;20062;-39
2022/09/09 01:58:12;;;;;;;36.35;17.10;;;14.20;99.90;;;;;;5075653;28;20050;-38
2022/09/09 02:01:03;;;;;;;26.73;16.02;;;14.10;99.90;;;;;;5080870;28;20434;-39
2022/09/09 02:03:33;;;;;;;23.13;14.82;;;14.20;99.90;;;;;;5093127;28;20047;-39
2022/09/09 02:06:23;;;;;;;21.42;15.18;;;14.20;99.90;;;;;;5090964;28;20047;-39
2022/09/09 02:09:01;;;;;;;20.02;14.15;;;14.20;99.90;;;;;;5111455;27;20051;-40
2022/09/09 02:11:28;;;;;;;28.02;16.80;;;14.20;99.90;;;;;;5094030;28;20061;-51
2022/09/09 02:14:24;;;;;;;22.25;16.15;;;14.20;99.90;;;;;;5098866;27;20376;-50
2022/09/09 02:16:56;;;;;;;21.33;14.30;;;14.20;99.90;;;;;;5093730;28;20447;-49
2022/09/09 02:19:34;;;;;;;23.33;15.82;;;14.20;99.90;;;;;;5089653;28;20588;-48
2022/09/09 02:22:11;;;;;;;19.27;14.32;;;14.20;99.90;;;;;;5090727;28;20047;-52
2022/09/09 02:24:39;;;;;;;25.80;17.63;;;14.20;99.90;;;;;;5088336;28;20557;-49
2022/09/09 02:27:16;;;;;;;26.30;15.73;;;14.20;99.90;;;;;;5074543;28;20088;-51
2022/09/09 02:29:44;;;;;;;22.00;14.63;;;14.30;99.90;;;;;;5081422;28;20059;-39
2022/09/09 02:32:23;;;;;;;22.02;15.55;;;14.20;99.90;;;;;;5093915;28;20047;-39
2022/09/09 02:34:55;;;;;;;29.88;14.38;;;14.30;99.90;;;;;;5072106;28;20105;-39
2022/09/09 02:37:28;;;;;;;27.13;15.55;;;14.30;99.90;;;;;;5061609;28;20413;-38
2022/09/09 02:39:55;;;;;;;26.65;15.45;;;14.30;99.90;;;;;;5091544;28;20707;-39
2022/09/09 02:42:23;;;;;;;24.40;15.05;;;14.30;99.90;;;;;;5095541;28;20051;-39
2022/09/09 02:44:50;;;;;;;35.50;17.80;;;14.30;99.90;;;;;;5074246;28;20428;-38
2022/09/09 02:47:36;;;;;;;29.08;16.35;;;14.30;99.90;;;;;;5093700;28;20039;-39
2022/09/09 02:50:30;;;;;;;27.20;15.32;;;14.30;99.90;;;;;;5093873;28;20052;-39
2022/09/09 02:53:21;;;;;;;31.13;17.00;;;14.30;99.90;;;;;;5093076;28;20116;-39
2022/09/09 02:55:50;;;;;;;28.58;15.57;;;14.30;99.90;;;;;;5072260;28;20380;-38
2022/09/09 02:58:19;;;;;;;28.02;18.27;;;14.30;99.90;;;;;;5106426;27;20644;-39
2022/09/09 03:00:55;;;;;;;27.63;17.60;;;14.20;99.90;;;;;;5108947;28;20154;-40
2022/09/09 03:03:21;;;;;;;33.58;19.50;;;14.20;99.90;;;;;;5073627;28;20055;-39
2022/09/09 03:05:50;;;;;;;27.38;17.85;;;14.30;99.90;;;;;;5070899;28;20054;-40
2022/09/09 03:08:17;;;;;;;26.77;18.70;;;14.20;99.90;;;;;;5091469;28;20054;-39
2022/09/09 03:10:43;;;;;;;26.27;16.95;;;14.20;99.90;;;;;;5094553;28;20059;-39
2022/09/09 03:13:12;;;;;;;23.23;16.80;;;14.20;99.90;;;;;;5074589;28;20039;-39
2022/09/09 03:15:39;;;;;;;39.10;19.52;;;14.20;99.90;;;;;;5072248;28;20118;-40
2022/09/09 03:18:08;;;;;;;22.83;16.52;;;14.20;99.90;;;;;;5049192;28;20113;-51
2022/09/09 03:20:34;;;;;;;29.48;18.17;;;14.20;99.90;;;;;;5088905;28;20116;-49
2022/09/09 03:23:02;;;;;;;26.83;16.08;;;14.20;99.90;;;;;;5087111;28;20055;-50
2022/09/09 03:25:28;;;;;;;28.80;16.38;;;14.20;99.90;;;;;;5086025;28;20043;-40
2022/09/09 03:27:55;;;;;;;23.40;15.38;;;14.20;99.90;;;;;;5082162;28;20164;-40
2022/09/09 03:30:24;;;;;;;24.42;14.98;;;14.20;99.90;;;;;;5070506;28;20051;-41
2022/09/09 03:32:50;;;;;;;26.45;16.25;;;14.20;99.90;;;;;;5087627;28;20114;-50
2022/09/09 03:35:16;;;;;;;20.42;13.65;;;14.20;99.90;;;;;;5098028;28;20505;-41
2022/09/09 03:37:43;;;;;;;21.80;12.82;;;14.20;99.90;;;;;;5100323;27;20123;-52
2022/09/09 03:40:11;;;;;;;21.35;14.02;;;14.10;99.90;;;;;;5079580;28;20051;-49
2022/09/09 03:42:38;;;;;;;17.13;13.93;;;14.10;99.90;;;;;;5082391;28;20679;-48
2022/09/09 03:45:07;;;;;;;24.45;16.33;;;14.10;99.90;;;;;;5087440;28;20118;-42
2022/09/09 03:47:34;;;;;;;32.80;18.27;;;14.10;99.90;;;;;;5090165;28;20049;-40
2022/09/09 03:50:08;;;;;;;26.40;17.02;;;14.10;99.90;;;;;;5096510;28;20079;-49
2022/09/09 03:52:40;;;;;;;26.63;18.33;;;14.10;99.90;;;;;;5096374;28;20577;-48
2022/09/09 03:55:10;;;;;;;22.00;16.48;;;14.20;99.90;;;;;;5078599;28;20086;-40
2022/09/09 03:57:37;;;;;;;28.33;18.38;;;14.10;99.90;;;;;;5094709;28;20520;-39
2022/09/09 04:00:08;;;;;;;22.58;16.88;;;14.10;99.90;;;;;;5097313;27;20543;-40
2022/09/09 04:02:43;;;;;;;27.63;17.35;;;14.10;99.90;;;;;;5081122;28;20508;-40
2022/09/09 04:05:13;;;;;;;23.08;16.40;;;14.10;99.90;;;;;;5081022;28;20083;-40
2022/09/09 04:07:41;;;;;;;26.92;18.38;;;14.10;99.90;;;;;;5096207;28;20436;-40
2022/09/09 04:10:08;;;;;;;23.42;16.90;;;14.10;99.90;;;;;;5075415;28;20058;-39
2022/09/09 04:12:35;;;;;;;31.08;18.98;;;14.10;99.90;;;;;;5095036;28;20047;-39
2022/09/09 04:15:01;;;;;;;25.33;16.65;;;14.10;99.90;;;;;;5096834;28;20050;-48
2022/09/09 04:17:28;;;;;;;28.45;18.02;;;14.10;99.90;;;;;;5062218;28;20150;-49
2022/09/09 04:19:54;;;;;;;37.33;19.67;;;14.10;99.90;;;;;;5091560;28;20068;-48
2022/09/09 04:22:22;;;;;;;27.67;17.90;;;14.10;99.90;;;;;;5071917;28;20280;-51
2022/09/09 04:24:48;;;;;;;33.05;20.42;;;14.10;99.90;;;;;;5094517;27;20058;-48
2022/09/09 04:27:16;;;;;;;33.20;21.40;;;14.10;99.90;;;;;;5089159;28;20036;-51
2022/09/09 04:29:42;;;;;;;30.83;19.83;;;14.10;99.90;;;;;;5091511;28;20900;-50
2022/09/09 04:32:08;;;;;;;39.08;21.15;;;14.10;99.90;;;;;;5097939;27;20122;-48
2022/09/09 04:34:34;;;;;;;32.10;20.55;;;14.10;99.90;;;;;;5094759;28;20114;-50
2022/09/09 04:37:01;;;;;;;30.45;21.15;;;14.10;99.90;;;;;;5093738;28;20544;-48
2022/09/09 04:39:27;;;;;;;30.67;21.63;;;14.00;99.90;;;;;;5056991;28;20431;-49
2022/09/09 04:41:53;;;;;;;25.13;18.92;;;14.10;99.90;;;;;;5055914;28;20113;-49
2022/09/09 04:44:21;;;;;;;31.48;20.83;;;14.00;99.90;;;;;;5071387;28;20054;-41
2022/09/09 04:46:48;;;;;;;25.13;19.83;;;14.00;99.90;;;;;;5071091;28;20043;-40
2022/09/09 04:49:14;;;;;;;27.27;19.67;;;14.00;99.90;;;;;;5090252;28;20047;-41
2022/09/09 04:51:42;;;;;;;32.85;21.15;;;14.00;99.90;;;;;;5071273;28;20047;-40
2022/09/09 04:54:08;;;;;;;29.25;20.83;;;13.90;99.90;;;;;;5080307;28;20041;-41
2022/09/09 04:56:38;;;;;;;27.40;19.13;;;13.90;99.90;;;;;;5073620;28;20048;-41
2022/09/09 04:59:05;;;;;;;27.98;19.77;;;13.90;99.90;;;;;;5092556;28;20071;-40
2022/09/09 05:01:40;;;;;;;28.40;19.33;;;13.90;99.90;;;;;;5046967;28;20582;-42
2022/09/09 05:04:08;;;;;;;29.70;20.52;;;13.90;99.90;;;;;;5076895;28;20052;-51
2022/09/09 05:06:36;;;;;;;25.83;17.70;;;13.80;99.90;;;;;;5091577;28;20655;-49
2022/09/09 05:09:02;;;;;;;30.45;19.70;;;13.80;99.90;;;;;;5080847;28;20039;-53
2022/09/09 05:11:32;;;;;;;28.48;19.15;;;13.80;99.90;;;;;;5072981;28;20039;-48
2022/09/09 05:14:07;;;;;;;25.10;18.27;;;13.80;99.90;;;;;;5089924;28;20151;-52
2022/09/09 05:16:33;;;;;;;26.90;18.70;;;13.80;99.90;;;;;;5077216;28;20789;-40
2022/09/09 05:18:59;;;;;;;26.85;19.02;;;13.80;99.90;;;;;;5091649;27;20099;-43
2022/09/09 05:21:31;;;;;;;24.77;17.35;;;13.80;99.90;;;;;;5074464;28;20055;-40
2022/09/09 05:23:57;;;;;;;25.23;18.30;;;13.80;99.90;;;;;;5076944;28;20077;-41
2022/09/09 05:26:24;;;;;;;26.25;18.02;;;13.80;99.90;;;;;;5074556;28;20043;-50
2022/09/09 05:28:53;;;;;;;32.75;20.73;;;13.80;99.90;;;;;;5074172;28;20387;-48
2022/09/09 05:31:19;;;;;;;30.52;19.52;;;13.80;99.90;;;;;;5073250;28;20355;-51
2022/09/09 05:33:51;;;;;;;30.55;20.52;;;13.80;99.90;;;;;;5089777;27;20382;-50
2022/09/09 05:36:20;;;;;;;29.35;18.33;;;13.80;99.90;;;;;;5091654;28;20091;-48
2022/09/09 05:38:50;;;;;;;24.88;17.73;;;13.80;99.90;;;;;;5058618;28;20078;-50
2022/09/09 05:41:17;;;;;;;22.13;17.88;;;13.80;99.90;;;;;;5057130;28;20055;-40
2022/09/09 05:43:45;;;;;;;27.63;20.02;;;13.80;99.90;;;;;;5080149;28;20055;-40
2022/09/09 05:46:22;;;;;;;25.05;17.85;;;13.90;99.90;;;;;;5073844;28;20047;-40
2022/09/09 05:48:51;;;;;;;23.45;17.92;;;13.80;99.90;;;;;;5062341;28;20662;-42
2022/09/09 05:51:22;;;;;;;24.77;18.33;;;13.90;99.90;;;;;;5089715;28;20047;-41
2022/09/09 05:53:48;;;;;;;24.20;18.83;;;14.00;99.90;;;;;;5094754;28;20074;-42
2022/09/09 05:56:24;;;;;;;28.58;19.80;;;14.10;99.90;;;;;;5077319;28;20458;-43
2022/09/09 05:58:53;;;;;;;24.77;18.20;;;14.20;99.90;;;;;;5092036;28;20040;-41
2022/09/09 06:01:24;;;;;;;24.38;18.00;;;14.30;99.90;;;;;;5083446;27;21199;-41
2022/09/09 06:03:51;;;;;;;22.50;17.88;;;14.40;99.90;;;;;;5075962;28;20044;-50
2022/09/09 06:06:21;;;;;;;17.90;15.48;;;14.60;99.90;;;;;;5055733;28;20607;-48
2022/09/09 06:08:50;;;;;;;17.67;13.98;;;14.60;99.90;;;;;;5090209;28;20563;-51
2022/09/09 06:11:21;;;;;;;17.30;14.57;;;14.70;99.90;;;;;;5061821;28;20063;-43
2022/09/09 06:13:50;;;;;;;16.50;14.10;;;14.70;99.90;;;;;;5094146;28;20104;-50
2022/09/09 06:16:19;;;;;;;17.20;13.30;;;14.70;99.90;;;;;;5092951;28;20055;-52
2022/09/09 06:18:45;;;;;;;15.77;13.40;;;14.60;99.90;;;;;;5074304;28;20047;-41
2022/09/09 06:21:16;;;;;;;15.30;12.25;;;14.70;99.90;;;;;;5058948;28;20274;-43
2022/09/09 06:23:44;;;;;;;17.13;13.68;;;14.70;99.90;;;;;;5092669;28;20506;-42
2022/09/09 06:26:30;;;;;;;13.43;12.05;;;14.70;99.90;;;;;;5093592;28;20094;-43
2022/09/09 06:28:57;;;;;;;13.23;11.93;;;14.70;99.90;;;;;;5093104;28;20468;-49
2022/09/09 06:31:30;;;;;;;13.52;12.15;;;14.70;99.90;;;;;;5091415;28;20360;-52
2022/09/09 06:33:58;;;;;;;14.32;12.05;;;14.70;99.90;;;;;;5092793;28;20040;-46
2022/09/09 06:36:31;;;;;;;14.38;12.35;;;14.70;99.90;;;;;;5072115;28;20330;-48
2022/09/09 06:38:58;;;;;;;14.82;12.43;;;14.80;99.90;;;;;;5091479;28;20048;-49
2022/09/09 06:41:27;;;;;;;14.10;12.00;;;14.80;99.90;;;;;;5089367;28;20050;-50
2022/09/09 06:43:57;;;;;;;14.65;12.32;;;14.80;99.90;;;;;;5093519;28;20028;-52
2022/09/09 06:46:32;;;;;;;14.45;13.00;;;14.80;99.90;;;;;;5090190;28;20399;-52
2022/09/09 06:49:00;;;;;;;13.95;12.52;;;14.80;99.90;;;;;;5091844;28;20530;-49
2022/09/09 06:51:32;;;;;;;13.40;12.00;;;14.90;99.90;;;;;;5093372;28;20090;-49
2022/09/09 06:53:59;;;;;;;;;;;14.80;99.90;;;;;;5091918;28;20144;-39
2022/09/09 06:56:34;;;;;;;13.55;11.52;;;14.80;99.90;;;;;;5058947;28;19920;-40
2022/09/09 06:59:08;;;;;;;12.48;11.20;;;14.90;99.90;;;;;;5091995;28;20472;-42
2022/09/09 07:01:37;;;;;;;16.50;14.77;;;15.00;99.90;;;;;;5093082;28;20055;-58
2022/09/09 07:04:07;;;;;;;15.18;11.70;;;15.10;99.90;;;;;;5095385;28;20048;-58
2022/09/09 07:06:39;;;;;;;14.18;11.07;;;15.20;99.90;;;;;;5090530;28;20167;-58
2022/09/09 07:09:12;;;;;;;12.93;11.52;;;15.50;99.90;;;;;;5092920;27;20498;-58
2022/09/09 07:11:46;;;;;;;11.32;9.82;;;15.80;99.90;;;;;;5096370;27;20155;-58
2022/09/09 07:14:13;;;;;;;13.05;8.70;;;15.90;99.90;;;;;;5079892;28;20388;-59
2022/09/09 07:16:42;;;;;;;11.30;8.80;;;15.90;99.90;;;;;;5091863;28;20050;-58
2022/09/09 07:19:09;;;;;;;12.02;8.15;;;16.00;99.90;;;;;;5092523;28;20231;-58
2022/09/09 07:21:36;;;;;;;13.18;9.43;;;16.10;99.90;;;;;;5115062;27;20047;-58
2022/09/09 07:24:04;;;;;;;11.80;9.15;;;16.20;99.90;;;;;;5098192;28;20043;-58
2022/09/09 07:26:31;;;;;;;9.88;7.47;;;16.10;99.90;;;;;;5081260;28;20806;-58
2022/09/09 07:29:00;;;;;;;11.45;7.60;;;16.20;99.90;;;;;;5071506;28;20078;-48
2022/09/09 07:31:32;;;;;;;11.68;8.60;;;16.50;99.90;;;;;;5096568;28;20048;-43
2022/09/09 07:33:59;;;;;;;10.07;6.60;;;16.80;99.90;;;;;;5094972;28;20406;-42
2022/09/09 07:36:29;;;;;;;11.23;7.45;;;17.40;99.90;;;;;;5097852;28;20071;-46
2022/09/09 07:38:58;;;;;;;9.30;6.93;;;18.10;99.90;;;;;;5075923;27;20476;-58
2022/09/09 07:41:27;;;;;;;8.52;5.45;;;18.70;99.90;;;;;;5093469;27;20047;-58
2022/09/09 07:43:54;;;;;;;8.93;5.80;;;19.00;99.90;;;;;;5074909;28;20043;-48
2022/09/09 07:46:22;;;;;;;50.92;45.88;;;19.60;99.90;;;;;;5061974;28;20557;-44
2022/09/09 07:48:52;;;;;;;16.17;13.95;;;20.00;99.90;;;;;;5084784;27;20089;-54
2022/09/09 07:51:25;;;;;;;9.95;8.48;;;20.20;99.90;;;;;;5090046;28;20044;-44
2022/09/09 07:53:59;;;;;;;9.73;8.68;;;20.30;99.90;;;;;;5095950;27;20039;-42
2022/09/09 07:56:28;;;;;;;24.33;21.90;;;20.50;99.90;;;;;;5093338;27;20048;-44
2022/09/09 07:58:55;;;;;;;23.92;21.48;;;20.50;99.90;;;;;;5093791;27;20458;-45
2022/09/09 08:01:26;;;;;;;12.82;10.50;;;20.80;99.90;;;;;;5078700;28;20527;-52
2022/09/09 08:04:15;;;;;;;7.85;4.93;;;20.60;99.90;;;;;;5090761;28;20047;-52
2022/09/09 08:06:49;;;;;;;25.98;21.20;;;20.60;99.90;;;;;;5091873;27;20043;-52
2022/09/09 08:09:17;;;;;;;12.15;9.90;;;20.40;99.90;;;;;;5076820;28;20543;-42
2022/09/09 08:11:45;;;;;;;8.55;6.45;;;20.50;99.90;;;;;;5075232;28;20128;-54
2022/09/09 08:14:13;;;;;;;12.55;9.95;;;20.50;99.90;;;;;;5078327;28;20126;-54
2022/09/09 08:16:45;;;;;;;9.32;5.75;;;20.90;99.90;;;;;;5076858;27;20071;-53
2022/09/09 08:19:14;;;;;;;8.23;6.97;;;20.90;99.90;;;;;;5076161;28;20067;-47
2022/09/09 08:21:43;;;;;;;9.95;5.05;;;20.80;99.90;;;;;;5090047;28;20051;-45
2022/09/09 08:24:11;;;;;;;12.18;5.35;;;20.50;99.90;;;;;;5058743;28;20200;-44
2022/09/09 08:26:41;;;;;;;10.32;6.38;;;20.20;99.90;;;;;;5094294;28;20582;-42
2022/09/09 08:29:10;;;;;;;8.70;5.65;;;20.00;99.90;;;;;;5093786;27;20051;-46
2022/09/09 08:31:39;;;;;;;9.18;5.22;;;19.70;99.90;;;;;;5097426;27;20141;-44
2022/09/09 08:34:08;;;;;;;12.60;10.35;;;19.40;99.90;;;;;;5113666;27;20483;-46
2022/09/09 08:36:38;;;;;;;10.35;5.32;;;19.30;99.90;;;;;;5057836;28;20811;-43
2022/09/09 08:39:05;;;;;;;9.57;5.18;;;19.20;99.90;;;;;;5090923;28;20050;-44
2022/09/09 08:41:44;;;;;;;9.80;6.15;;;19.10;99.90;;;;;;5074620;28;20043;-43
2022/09/09 08:44:48;;;;;;;9.30;5.43;;;19.10;99.90;;;;;;5096001;27;20092;-43
2022/09/09 08:47:28;;;;;;;7.88;5.47;;;19.30;99.90;;;;;;5092892;28;20043;-44
2022/09/09 08:50:16;;;;;;;10.13;4.20;;;19.50;99.90;;;;;;5078385;28;20236;-46
2022/09/09 08:52:52;;;;;;;9.07;5.35;;;19.90;99.90;;;;;;5092060;28;20089;-56
2022/09/09 08:55:27;;;;;;;9.43;4.03;;;20.30;99.90;;;;;;5076417;28;20475;-57
2022/09/09 08:57:58;;;;;;;8.27;3.60;;;20.30;99.90;;;;;;5092570;27;20122;-56
2022/09/09 09:00:43;;;;;;;8.45;4.85;;;20.10;99.90;;;;;;5094337;27;20111;-56
2022/09/09 09:03:35;;;;;;;10.07;4.45;;;20.00;99.90;;;;;;5088119;27;20052;-56
2022/09/09 09:06:09;;;;;;;7.55;3.35;;;20.10;99.90;;;;;;5070815;28;20059;-55
2022/09/09 09:08:57;;;;;;;9.25;2.88;;;20.50;99.90;;;;;;5092058;28;20055;-55
2022/09/09 09:11:24;;;;;;;8.95;3.65;;;20.20;99.90;;;;;;5091629;27;20055;-43
2022/09/09 09:14:03;;;;;;;6.78;3.15;;;20.60;99.90;;;;;;5072760;28;20330;-44
2022/09/09 09:17:01;;;;;;;9.68;3.40;;;20.80;99.90;;;;;;5075034;28;20051;-57
2022/09/09 09:19:30;;;;;;;10.63;3.85;;;20.70;99.90;;;;;;5088560;28;20032;-57
2022/09/09 09:22:18;;;;;;;12.65;4.45;;;20.20;99.90;;;;;;5091095;28;20338;-57
2022/09/09 09:25:11;;;;;;;8.45;2.78;;;19.90;99.90;;;;;;5058324;28;20048;-57
2022/09/09 09:28:21;;;;;;;8.82;3.30;;;19.80;99.90;;;;;;5080744;28;20542;-48
2022/09/09 09:31:00;;;;;;;16.00;9.88;;;19.90;99.90;;;;;;5047775;28;20071;-46
2022/09/09 09:33:32;;;;;;;7.63;3.08;;;19.80;99.90;;;;;;5093797;27;20408;-45
2022/09/09 09:35:59;;;;;;;8.00;2.90;;;20.50;99.90;;;;;;5073221;28;20398;-46
2022/09/09 09:38:28;;;;;;;8.68;2.45;;;21.30;99.90;;;;;;5074891;28;20044;-46
2022/09/09 09:40:58;;;;;;;9.60;3.38;;;22.40;99.90;;;;;;5094641;27;20161;-47
2022/09/09 09:43:36;;;;;;;8.07;2.60;;;22.70;99.90;;;;;;5088280;27;20516;-56
2022/09/09 09:46:23;;;;;;;9.82;2.80;;;22.90;99.90;;;;;;5089942;27;20040;-57
2022/09/09 09:49:09;;;;;;;9.10;3.38;;;23.20;99.90;;;;;;5052511;28;20070;-46
2022/09/09 09:51:36;;;;;;;8.98;4.03;;;22.40;99.90;;;;;;5091845;28;20055;-51
2022/09/09 09:54:27;;;;;;;10.73;3.65;;;21.70;99.90;;;;;;5106928;27;20044;-52
2022/09/09 09:57:11;;;;;;;9.45;2.42;;;21.10;99.90;;;;;;5089099;28;20054;-53
2022/09/09 09:59:41;;;;;;;10.85;2.30;;;20.70;99.90;;;;;;5071664;28;20466;-54
2022/09/09 10:02:24;;;;;;;10.18;2.70;;;20.50;99.90;;;;;;5095397;28;20103;-54
2022/09/09 10:05:26;;;;;;;6.82;2.10;;;20.40;99.90;;;;;;5073142;28;20047;-54
2022/09/09 10:08:16;;;;;;;5.50;2.00;;;20.70;99.90;;;;;;5077496;27;20431;-55
2022/09/09 10:10:48;;;;;;;7.70;2.50;;;20.50;99.90;;;;;;5090998;28;20509;-55
2022/09/09 10:13:39;;;;;;;9.05;2.30;;;20.40;99.90;;;;;;5087628;28;20718;-55
2022/09/09 10:16:08;;;;;;;8.60;2.77;;;20.40;99.90;;;;;;5069032;28;20131;-54
2022/09/09 10:19:03;;;;;;;8.50;2.35;;;20.40;99.90;;;;;;5086756;28;20301;-53
2022/09/09 10:21:57;;;;;;;7.75;2.47;;;20.60;99.90;;;;;;5090874;28;20051;-48
2022/09/09 10:24:41;;;;;;;13.57;6.40;;;21.40;99.90;;;;;;5092311;28;20447;-52
2022/09/09 10:27:11;;;;;;;7.70;2.17;;;22.00;99.90;;;;;;5089049;28;20035;-48
2022/09/09 10:30:11;;;;;;;7.30;1.98;;;22.50;99.90;;;;;;5093210;28;20035;-52
2022/09/09 10:32:38;;;;;;;6.90;1.58;;;22.90;99.90;;;;;;5091464;28;20048;-47
2022/09/09 10:35:23;;;;;;;5.63;1.60;;;23.50;99.90;;;;;;5090336;28;20058;-48
2022/09/09 10:38:14;;;;;;;9.98;4.40;;;24.20;99.90;;;;;;5093946;28;20036;-47
2022/09/09 10:40:44;;;;;;;;;;;24.20;99.90;;;;;;5092582;28;20462;-51
2022/09/09 10:43:34;;;;;;;5.82;1.90;;;24.60;99.90;;;;;;5058546;28;19930;-52
2022/09/09 10:46:06;;;;;;;6.97;1.80;;;24.30;99.90;;;;;;5089559;27;20043;-54
2022/09/09 10:48:50;;;;;;;7.07;3.08;;;24.80;99.90;;;;;;5098355;28;20454;-51
2022/09/09 10:51:33;;;;;;;8.25;2.03;;;24.80;99.90;;;;;;5095515;28;20170;-50
2022/09/09 10:54:46;;;;;;;6.65;2.20;;;24.80;99.90;;;;;;5096521;28;20436;-52
2022/09/09 10:57:44;;;;;;;5.90;1.42;;;25.50;99.90;;;;;;5069659;27;20602;-48
2022/09/09 11:00:24;;;;;;;6.65;1.85;;;25.10;99.90;;;;;;5095094;27;20457;-47
2022/09/09 11:02:57;;;;;;;7.45;2.38;;;24.80;99.90;;;;;;5078971;28;20761;-50
2022/09/09 11:05:33;;;;;;;5.32;1.42;;;24.30;99.90;;;;;;5092344;28;20062;-49
2022/09/09 11:08:21;;;;;;;6.63;1.70;;;23.70;99.90;;;;;;5073601;28;20120;-50
2022/09/09 11:10:56;;;;;;;7.95;3.17;;;23.00;99.90;;;;;;5093306;27;20062;-55
2022/09/09 11:13:37;;;;;;;9.75;3.53;;;22.50;99.90;;;;;;5097402;27;20097;-56
2022/09/09 11:16:23;;;;;;;7.90;2.40;;;21.90;99.90;;;;;;5078816;28;20047;-55
2022/09/09 11:18:49;;;;;;;7.10;2.28;;;21.40;99.90;;;;;;5073550;27;20102;-55
2022/09/09 11:21:39;;;;;;;5.80;2.25;;;21.50;99.90;;;;;;5093972;27;20663;-54
2022/09/09 11:24:11;;;;;;;10.18;2.13;;;21.50;99.90;;;;;;5092990;28;20502;-54
2022/09/09 11:26:45;;;;;;;4.70;1.77;;;21.50;99.90;;;;;;5075459;28;20447;-54
2022/09/09 11:29:35;;;;;;;6.70;2.08;;;21.90;99.90;;;;;;5092423;28;20047;-53
2022/09/09 11:32:53;;;;;;;8.38;2.40;;;21.90;99.90;;;;;;5095171;28;20043;-54
2022/09/09 11:35:48;;;;;;;7.13;1.90;;;22.00;99.90;;;;;;5054528;28;20870;-57
2022/09/09 11:38:28;;;;;;;8.05;2.10;;;21.60;99.90;;;;;;5090320;28;20120;-54
2022/09/09 11:41:03;;;;;;;4.85;1.85;;;21.10;99.90;;;;;;5094362;27;21626;-54
2022/09/09 11:43:39;;;;;;;8.70;1.92;;;21.00;99.90;;;;;;5094115;28;20159;-54
2022/09/09 11:46:07;;;;;;;10.05;2.33;;;20.60;99.90;;;;;;5093844;28;20383;-53
2022/09/09 11:48:48;;;;;;;4.50;1.42;;;20.50;99.90;;;;;;5093515;28;20048;-53
2022/09/09 11:51:35;;;;;;;5.07;1.67;;;20.30;99.90;;;;;;5091817;28;20598;-51
2022/09/09 11:54:23;;;;;;;6.35;1.90;;;20.50;99.90;;;;;;5091426;27;20470;-52
2022/09/09 11:56:49;;;;;;;6.20;1.98;;;20.80;99.90;;;;;;5070104;28;20044;-49
2022/09/09 11:59:28;;;;;;;7.30;2.58;;;21.00;99.90;;;;;;5058515;28;20393;-51
2022/09/09 12:02:24;;;;;;;6.45;2.30;;;21.10;99.90;;;;;;5091107;27;20040;-50
2022/09/09 12:05:06;;;;;;;7.20;2.00;;;21.40;99.90;;;;;;5093136;27;20350;-45
2022/09/09 12:07:32;;;;;;;4.78;1.80;;;21.90;99.90;;;;;;5090338;28;20048;-49
2022/09/09 12:10:01;;;;;;;7.38;2.50;;;22.50;99.90;;;;;;5091816;27;20052;-46
2022/09/09 12:12:33;;;;;;;6.22;1.80;;;22.70;99.90;;;;;;5092485;28;20166;-50
2022/09/09 12:15:08;;;;;;;6.85;1.67;;;23.50;99.90;;;;;;5090748;28;21430;-47
2022/09/09 12:17:44;;;;;;;7.53;3.45;;;24.10;99.90;;;;;;5094249;28;20288;-46
2022/09/09 12:20:17;;;;;;;7.43;1.83;;;23.70;99.90;;;;;;5086713;27;20053;-45
2022/09/09 12:23:06;;;;;;;6.60;1.50;;;23.20;99.90;;;;;;5090415;27;20048;-49
2022/09/09 12:25:35;;;;;;;6.95;1.75;;;22.60;99.90;;;;;;5108602;27;20054;-45
2022/09/09 12:28:18;;;;;;;7.07;2.65;;;22.30;99.90;;;;;;5107706;27;20400;-47
2022/09/09 12:31:10;;;;;;;8.10;3.22;;;22.30;99.90;;;;;;5091508;28;20048;-45
2022/09/09 12:33:37;;;;;;;;;;;22.30;99.90;;;;;;5094539;27;20039;-45
2022/09/09 12:36:06;;;;;;;11.30;5.25;;;21.90;99.90;;;;;;5090489;27;20283;-53
2022/09/09 12:38:36;;;;;;;7.28;2.10;;;22.00;99.90;;;;;;5091728;28;20047;-50
2022/09/09 12:41:03;;;;;;;6.95;1.75;;;22.20;99.90;;;;;;5093298;28;20438;-55
2022/09/09 12:43:29;;;;;;;5.50;1.30;;;22.60;99.90;;;;;;5091633;27;20055;-50
2022/09/09 12:46:03;;;;;;;7.03;1.40;;;23.00;99.90;;;;;;5089477;27;20144;-54
2022/09/09 12:48:36;;;;;;;5.10;1.80;;;22.60;99.90;;;;;;5038901;28;20506;-53
2022/09/09 12:51:05;;;;;;;5.53;1.50;;;22.00;99.90;;;;;;5090630;28;20484;-53
2022/09/09 12:53:38;;;;;;;5.63;1.77;;;21.80;99.90;;;;;;5091980;28;20118;-47
2022/09/09 12:56:07;;;;;;;7.13;1.63;;;21.50;99.90;;;;;;5092217;28;20880;-51
2022/09/09 12:58:35;;;;;;;7.00;2.10;;;21.00;99.90;;;;;;5090204;27;20039;-55
2022/09/09 13:01:08;;;;;;;11.05;2.30;;;20.40;99.90;;;;;;5090192;27;20515;-53
2022/09/09 13:03:42;;;;;;;9.85;4.15;;;20.20;99.90;;;;;;5096483;27;20103;-53
2022/09/09 13:06:18;;;;;;;10.00;3.10;;;20.60;99.90;;;;;;5091730;27;20546;-51
2022/09/09 13:08:44;;;;;;;4.97;2.03;;;21.50;99.90;;;;;;5090839;27;20051;-54
2022/09/09 13:11:17;;;;;;;6.53;1.77;;;22.00;99.90;;;;;;5071771;28;20053;-54
2022/09/09 13:13:51;;;;;;;8.82;2.83;;;22.00;99.90;;;;;;5091008;28;20074;-52